Time;durP1;ratioP1;P1;durP2;ratioP2;P2;SDS_P1;SDS_P2;PMS_P1;PMS_P2;Temp;Humidity;BMP_temperature;BMP_pressure;BME280_temperature;BME280_humidity;BME280_pressure;Samples;Min_cycle;Max_cycle;Signal;HPM_P1;HPM_P2
2020/12/29 00:02:15;;;;;;;;;;;2.90;99.90;;;;;;5053336;28;20026;-84
2020/12/29 00:04:41;;;;;;;;;;;3.00;99.90;;;;;;5053203;28;19924;-84
2020/12/29 00:07:07;;;;;;;;;;;3.00;99.90;;;;;;5053105;28;20331;-84
2020/12/29 00:09:32;;;;;;;;;;;2.90;99.90;;;;;;5052829;28;19908;-84
2020/12/29 00:12:00;;;;;;;;;;;2.90;99.90;;;;;;5052879;28;19909;-83
2020/12/29 00:14:26;;;;;;;;;;;3.00;99.90;;;;;;5053076;28;20277;-84
2020/12/29 00:16:54;;;;;;;;;;;3.00;99.90;;;;;;5054729;28;19916;-84
2020/12/29 00:19:21;;;;;;;;;;;3.00;99.90;;;;;;5057121;28;20325;-84
2020/12/29 00:21:49;;;;;;;;;;;3.10;99.90;;;;;;5056876;28;19928;-83
2020/12/29 00:24:15;;;;;;;;;;;3.10;99.90;;;;;;5057017;28;19909;-84
2020/12/29 00:26:45;;;;;;;;;;;3.10;99.90;;;;;;5058149;28;19916;-84
2020/12/29 00:29:15;;;;;;;;;;;3.10;99.90;;;;;;5057160;28;19920;-84
2020/12/29 00:31:43;;;;;;;;;;;3.10;99.90;;;;;;5056954;28;19912;-84
2020/12/29 00:34:09;;;;;;;;;;;3.00;99.90;;;;;;5056911;28;19912;-84
2020/12/29 00:36:34;;;;;;;;;;;3.00;99.90;;;;;;5056854;28;19909;-84
2020/12/29 00:39:00;;;;;;;;;;;3.00;99.90;;;;;;5056757;28;19915;-84
2020/12/29 00:41:25;;;;;;;;;;;3.10;99.90;;;;;;5056398;28;19913;-84
2020/12/29 00:43:53;;;;;;;;;;;3.00;99.90;;;;;;5056770;28;20283;-84
2020/12/29 00:46:22;;;;;;;;;;;3.00;99.90;;;;;;5056389;28;19999;-83
2020/12/29 00:48:48;;;;;;;;;;;3.00;99.90;;;;;;5056435;28;19909;-84
2020/12/29 00:51:18;;;;;;;;;;;3.00;99.90;;;;;;5056618;28;19955;-83
2020/12/29 00:53:44;;;;;;;;;;;3.00;99.90;;;;;;5056641;28;19909;-84
2020/12/29 00:56:10;;;;;;;;;;;2.90;99.90;;;;;;5056425;28;19915;-83
2020/12/29 00:58:41;;;;;;;;;;;3.00;99.90;;;;;;5056381;28;19909;-84
2020/12/29 01:01:07;;;;;;;;;;;3.00;99.90;;;;;;5056308;28;19912;-84
2020/12/29 01:03:35;;;;;;;;;;;3.00;99.90;;;;;;5056443;28;19952;-84
2020/12/29 01:06:03;;;;;;;;;;;3.10;99.90;;;;;;5055947;28;19920;-84
2020/12/29 01:08:29;;;;;;;;;;;3.00;99.90;;;;;;5056352;28;19916;-83
2020/12/29 01:10:55;;;;;;;;;;;3.00;99.90;;;;;;5056684;28;19908;-84
2020/12/29 01:13:21;;;;;;;;;;;2.90;99.90;;;;;;5056272;28;20291;-84
2020/12/29 01:15:50;;;;;;;;;;;2.90;99.90;;;;;;5057215;28;19909;-83
2020/12/29 01:18:15;;;;;;;;;;;2.90;99.90;;;;;;5056043;28;19935;-83
2020/12/29 01:20:43;;;;;;;;;;;3.00;99.90;;;;;;5055443;28;19951;-84
2020/12/29 01:23:11;;;;;;;;;;;3.10;99.90;;;;;;5056159;28;20360;-84
2020/12/29 01:25:39;;;;;;;;;;;3.20;99.90;;;;;;5055993;28;19909;-83
2020/12/29 01:28:04;;;;;;;;;;;3.30;99.90;;;;;;5054983;28;20348;-84
2020/12/29 01:30:30;;;;;;;;;;;3.40;99.90;;;;;;5055594;28;19909;-84
2020/12/29 01:32:55;;;;;;;;;;;3.40;99.90;;;;;;5056044;28;20051;-84
2020/12/29 01:35:21;;;;;;;;;;;3.40;99.90;;;;;;5055393;28;20283;-85
2020/12/29 01:37:49;;;;;;;;;;;3.40;99.90;;;;;;5055589;28;19958;-85
2020/12/29 01:40:14;;;;;;;;;;;3.50;99.90;;;;;;5055832;28;19913;-84
2020/12/29 01:42:41;;;;;;;;;;;3.50;99.90;;;;;;5055576;28;20283;-84
2020/12/29 01:45:11;;;;;;;;;;;3.50;99.90;;;;;;5055790;28;19909;-84
2020/12/29 01:47:39;;;;;;;;;;;3.50;99.90;;;;;;5055555;28;19916;-85
2020/12/29 01:50:12;;;;;;;;;;;3.50;99.90;;;;;;5055327;28;19909;-84
2020/12/29 01:52:37;;;;;;;;;;;3.40;99.90;;;;;;5055588;28;19909;-84
2020/12/29 01:55:04;;;;;;;;;;;3.40;99.90;;;;;;5055569;28;19909;-84
2020/12/29 01:57:30;;;;;;;;;;;3.40;99.90;;;;;;5055374;28;19916;-84
2020/12/29 01:59:55;;;;;;;;;;;3.40;99.90;;;;;;5055086;28;19909;-85
2020/12/29 02:02:21;;;;;;;;;;;3.30;99.90;;;;;;5055146;28;20013;-85
2020/12/29 02:04:49;;;;;;;;;;;3.30;99.90;;;;;;5055098;28;19990;-85
2020/12/29 02:07:16;;;;;;;;;;;3.40;99.90;;;;;;5055207;28;19909;-85
2020/12/29 02:09:46;;;;;;;;;;;3.40;99.90;;;;;;5055083;28;19912;-85
2020/12/29 02:12:23;;;;;;;;;;;3.40;99.90;;;;;;5054977;28;19973;-84
2020/12/29 02:14:49;;;;;;;;;;;3.40;99.90;;;;;;5054736;28;19909;-85
2020/12/29 02:17:14;;;;;;;;;;;3.40;99.90;;;;;;5055097;28;20347;-85
2020/12/29 02:19:42;;;;;;;;;;;3.30;99.90;;;;;;5055174;28;20168;-85
2020/12/29 02:22:08;;;;;;;;;;;3.40;99.90;;;;;;5054542;28;19921;-85
2020/12/29 02:24:34;;;;;;;;;;;3.40;99.90;;;;;;5055030;28;19915;-85
2020/12/29 02:27:02;;;;;;;;;;;3.40;99.90;;;;;;5054879;28;20387;-85
2020/12/29 02:29:30;;;;;;;;;;;3.40;99.90;;;;;;5054712;28;19916;-85
2020/12/29 02:31:56;;;;;;;;;;;3.50;99.90;;;;;;5054763;28;19916;-85
2020/12/29 02:34:27;;;;;;;;;;;3.40;99.90;;;;;;5054828;28;20352;-85
2020/12/29 02:36:52;;;;;;;;;;;3.40;99.90;;;;;;5054684;28;20406;-85
2020/12/29 02:39:18;;;;;;;;;;;3.40;99.90;;;;;;5054003;28;19909;-86
2020/12/29 02:41:43;;;;;;;;;;;3.50;99.90;;;;;;5053755;28;19925;-85
2020/12/29 02:44:17;;;;;;;;;;;3.40;99.90;;;;;;5054215;28;20375;-86
2020/12/29 02:46:48;;;;;;;;;;;3.40;99.90;;;;;;5054445;28;19923;-86
2020/12/29 02:49:14;;;;;;;;;;;3.40;99.90;;;;;;5055327;28;19909;-85
2020/12/29 02:51:40;;;;;;;;;;;3.40;99.90;;;;;;5054443;28;19909;-86
2020/12/29 02:54:05;;;;;;;;;;;3.30;99.90;;;;;;5054207;28;19909;-85
2020/12/29 02:56:31;;;;;;;;;;;3.40;99.90;;;;;;5054080;28;20367;-86
2020/12/29 02:58:56;;;;;;;;;;;3.50;99.90;;;;;;5054422;28;19916;-85
2020/12/29 03:01:27;;;;;;;;;;;3.50;99.90;;;;;;5054225;28;19940;-85
2020/12/29 03:03:55;;;;;;;;;;;3.50;99.90;;;;;;5053978;28;20355;-85
2020/12/29 03:06:24;;;;;;;;;;;3.60;99.90;;;;;;5054051;28;19913;-85
2020/12/29 03:08:52;;;;;;;;;;;3.50;99.90;;;;;;5053715;28;20387;-85
2020/12/29 03:11:27;;;;;;;;;;;3.50;99.90;;;;;;5053556;28;19931;-85
2020/12/29 03:13:57;;;;;;;;;;;3.50;99.90;;;;;;5053910;28;19908;-85
2020/12/29 03:16:23;;;;;;;;;;;3.50;99.90;;;;;;5054020;28;19916;-86
2020/12/29 03:18:51;;;;;;;;;;;3.50;99.90;;;;;;5053760;28;19913;-85
2020/12/29 03:21:17;;;;;;;;;;;3.40;99.90;;;;;;5053642;28;20367;-85
2020/12/29 03:23:44;;;;;;;;;;;3.30;99.90;;;;;;5054528;28;19999;-85
2020/12/29 03:26:10;;;;;;;;;;;3.30;99.90;;;;;;5053790;28;19916;-85
2020/12/29 03:28:36;;;;;;;;;;;3.30;99.90;;;;;;5167339;22;19928;-86
2020/12/29 03:31:01;;;;;;;;;;;3.30;99.90;;;;;;5096888;28;19927;-85
2020/12/29 03:33:27;;;;;;;;;;;3.50;99.90;;;;;;5097334;28;19948;-85
2020/12/29 03:35:55;;;;;;;;;;;3.50;99.90;;;;;;5097288;28;20135;-85
2020/12/29 03:38:23;;;;;;;;;;;3.50;99.90;;;;;;5096867;28;19908;-86
2020/12/29 03:40:52;;;;;;;;;;;3.50;99.90;;;;;;5097051;28;19986;-86
2020/12/29 03:43:17;;;;;;;;;;;3.50;99.90;;;;;;5097314;28;19931;-88
2020/12/29 03:45:43;;;;;;;;;;;3.50;99.90;;;;;;5097120;28;19912;-86
2020/12/29 03:48:10;;;;;;;;;;;3.40;99.90;;;;;;5097069;28;19908;-86
2020/12/29 03:50:35;;;;;;;;;;;3.40;99.90;;;;;;5114620;28;19908;-86
2020/12/29 03:53:01;;;;;;;;;;;3.40;99.90;;;;;;5096878;28;19908;-84
2020/12/29 03:55:26;;;;;;;;;;;3.40;99.90;;;;;;5097271;28;20376;-88
2020/12/29 03:57:52;;;;;;;;;;;3.40;99.90;;;;;;5097035;28;19908;-87
2020/12/29 04:00:17;;;;;;;;;;;3.50;99.90;;;;;;5096971;28;19915;-85
2020/12/29 04:02:44;;;;;;;;;;;3.40;99.90;;;;;;5096377;28;20981;-87
2020/12/29 04:05:11;;;;;;;;;;;3.50;99.90;;;;;;5097267;28;20343;-87
2020/12/29 04:07:37;;;;;;;;;;;3.50;99.90;;;;;;5096912;28;19912;-87
2020/12/29 04:10:06;;;;;;;;;;;3.40;99.90;;;;;;5097293;28;19930;-87
2020/12/29 04:12:31;;;;;;;;;;;3.40;99.90;;;;;;5097179;28;19908;-87
2020/12/29 04:14:59;;;;;;;;;;;3.40;99.90;;;;;;5096888;28;19915;-85
2020/12/29 04:17:32;;;;;;;;;;;3.40;99.90;;;;;;5115094;28;19907;-86
2020/12/29 04:19:57;;;;;;;;;;;3.40;99.90;;;;;;5096815;28;19907;-88
2020/12/29 04:22:23;;;;;;;;;;;3.50;99.90;;;;;;5214465;22;20416;-85
2020/12/29 04:24:51;;;;;;;;;;;3.50;99.90;;;;;;5076679;28;19919;-84
2020/12/29 04:27:16;;;;;;;;;;;3.50;99.90;;;;;;5076479;28;19909;-85
2020/12/29 04:29:42;;;;;;;;;;;3.50;99.90;;;;;;5076531;28;19923;-85
2020/12/29 04:32:07;;;;;;;;;;;3.50;99.90;;;;;;5076379;28;19922;-85
2020/12/29 04:34:33;;;;;;;;;;;3.50;99.90;;;;;;5076269;28;19908;-85
2020/12/29 04:36:58;;;;;;;;;;;3.50;99.90;;;;;;5076518;28;19909;-85
2020/12/29 04:39:24;;;;;;;;;;;3.50;99.90;;;;;;5076159;28;19935;-85
2020/12/29 04:41:59;;;;;;;;;;;3.50;99.90;;;;;;5076037;28;19916;-85
2020/12/29 04:44:26;;;;;;;;;;;3.50;99.90;;;;;;5094095;28;19912;-85
2020/12/29 04:46:54;;;;;;;;;;;3.50;99.90;;;;;;5076043;28;20378;-85
2020/12/29 04:49:22;;;;;;;;;;;3.50;99.90;;;;;;5076162;28;19908;-85
2020/12/29 04:51:50;;;;;;;;;;;3.40;99.90;;;;;;5076268;28;19908;-85
2020/12/29 04:54:19;;;;;;;;;;;3.40;99.90;;;;;;5075974;28;19908;-85
2020/12/29 04:56:53;;;;;;;;;;;3.50;99.90;;;;;;5075967;28;20007;-85
2020/12/29 04:59:21;;;;;;;;;;;3.50;99.90;;;;;;5076268;28;19915;-85
2020/12/29 05:01:49;;;;;;;;;;;3.50;99.90;;;;;;5075681;28;19916;-84
2020/12/29 05:04:16;;;;;;;;;;;3.50;99.90;;;;;;5078353;28;19916;-85
2020/12/29 05:06:41;;;;;;;;;;;3.50;99.90;;;;;;5079837;28;19915;-84
2020/12/29 05:09:09;;;;;;;;;;;3.50;99.90;;;;;;5079722;28;19908;-85
2020/12/29 05:11:38;;;;;;;;;;;3.60;99.90;;;;;;5079491;28;19957;-84
2020/12/29 05:14:07;;;;;;;;;;;3.60;99.90;;;;;;5079776;28;19908;-85
2020/12/29 05:16:36;;;;;;;;;;;3.60;99.90;;;;;;5079436;28;19915;-85
2020/12/29 05:19:04;;;;;;;;;;;3.60;99.90;;;;;;5079657;28;19934;-85
2020/12/29 05:21:33;;;;;;;;;;;3.60;99.90;;;;;;5079141;28;19938;-84
2020/12/29 05:24:01;;;;;;;;;;;3.70;99.90;;;;;;5079129;28;19920;-85
2020/12/29 05:26:30;;;;;;;;;;;3.70;99.90;;;;;;5079198;28;20267;-85
2020/12/29 05:28:56;;;;;;;;;;;3.70;99.90;;;;;;5079472;28;19908;-85
2020/12/29 05:31:32;;;;;;;;;;;3.70;99.90;;;;;;5079342;28;19975;-85
2020/12/29 05:34:00;;;;;;;;;;;3.70;99.90;;;;;;5079372;28;20002;-85
2020/12/29 05:36:26;;;;;;;;;;;3.70;99.90;;;;;;5079196;28;19962;-84
2020/12/29 05:38:55;;;;;;;;;;;3.70;99.90;;;;;;5079094;28;19908;-85
2020/12/29 05:41:21;;;;;;;;;;;3.60;99.90;;;;;;5078814;28;20268;-86
2020/12/29 05:43:59;;;;;;;;;;;3.70;99.90;;;;;;5079161;28;19974;-85
2020/12/29 05:46:26;;;;;;;;;;;3.70;99.90;;;;;;5079324;28;19974;-85
2020/12/29 05:48:57;;;;;;;;;;;3.70;99.90;;;;;;5078798;28;20375;-85
2020/12/29 05:51:26;;;;;;;;;;;3.70;99.90;;;;;;5078585;28;19912;-85
2020/12/29 05:53:57;;;;;;;;;;;3.80;99.90;;;;;;5078646;28;19915;-84
2020/12/29 05:56:26;;;;;;;;;;;3.70;99.90;;;;;;5078668;28;19931;-85
2020/12/29 05:58:51;;;;;;;;;;;3.80;99.90;;;;;;5078674;28;19962;-84
2020/12/29 06:01:19;;;;;;;;;;;3.80;99.90;;;;;;5078594;28;19959;-85
2020/12/29 06:03:45;;;;;;;;;;;3.80;99.90;;;;;;5078466;28;19943;-85
2020/12/29 06:06:12;;;;;;;;;;;3.80;99.90;;;;;;5078760;28;19908;-85
2020/12/29 06:08:44;;;;;;;;;;;3.80;99.90;;;;;;5078835;28;20270;-84
2020/12/29 06:11:13;;;;;;;;;;;3.80;99.90;;;;;;5078671;28;20397;-85
2020/12/29 06:13:45;;;;;;;;;;;3.80;99.90;;;;;;5078468;28;19915;-85
2020/12/29 06:16:15;;;;;;;;;;;3.70;99.90;;;;;;5078378;28;19912;-85
2020/12/29 06:18:44;;;;;;;;;;;3.80;99.90;;;;;;5078424;28;19916;-85
2020/12/29 06:21:10;;;;;;;;;;;3.80;99.90;;;;;;5078488;28;19920;-85
2020/12/29 06:23:38;;;;;;;;;;;3.70;99.90;;;;;;5078186;28;19920;-85
2020/12/29 06:26:08;;;;;;;;;;;3.70;99.90;;;;;;5078488;28;19909;-85
2020/12/29 06:28:36;;;;;;;;;;;3.70;99.90;;;;;;5078080;28;19909;-85
2020/12/29 06:31:05;;;;;;;;;;;3.70;99.90;;;;;;5078186;28;19916;-85
2020/12/29 06:33:31;;;;;;;;;;;3.80;99.90;;;;;;5078127;28;19908;-85
2020/12/29 06:35:56;;;;;;;;;;;3.80;99.90;;;;;;5078036;28;19908;-85
2020/12/29 06:38:24;;;;;;;;;;;3.80;99.90;;;;;;5077995;28;19912;-85
2020/12/29 06:40:53;;;;;;;;;;;3.80;99.90;;;;;;5070534;28;19931;-84
2020/12/29 06:43:19;;;;;;;;;;;3.80;99.90;;;;;;5086157;28;20279;-85
2020/12/29 06:45:47;;;;;;;;;;;3.80;99.90;;;;;;5068311;28;20500;-85
2020/12/29 06:48:21;;;;;;;;;;;3.70;99.90;;;;;;5066990;28;19909;-85
2020/12/29 06:50:49;;;;;;;;;;;3.70;99.90;;;;;;5066159;28;19908;-85
2020/12/29 06:53:16;;;;;;;;;;;3.60;99.90;;;;;;5067471;28;19908;-84
2020/12/29 06:55:46;;;;;;;;;;;3.50;99.90;;;;;;5065840;28;20148;-84
2020/12/29 06:58:12;;;;;;;;;;;3.50;99.90;;;;;;5067799;28;20058;-85
2020/12/29 07:00:40;;;;;;;;;;;3.50;99.90;;;;;;5065871;28;19921;-84
2020/12/29 07:03:11;;;;;;;;;;;3.40;99.90;;;;;;5077499;28;19908;-85
2020/12/29 07:05:39;;;;;;;;;;;3.40;99.90;;;;;;5095371;28;20354;-85
2020/12/29 07:08:08;;;;;;;;;;;3.40;99.90;;;;;;5077225;28;19908;-85
2020/12/29 07:10:45;;;;;;;;;;;3.40;99.90;;;;;;5076991;28;19912;-84
2020/12/29 07:13:16;;;;;;;;;;;3.30;99.90;;;;;;5077356;28;19965;-85
2020/12/29 07:15:48;;;;;;;;;;;3.30;99.90;;;;;;5077088;28;20347;-85
2020/12/29 07:18:17;;;;;;;;;;;3.30;99.90;;;;;;5077224;28;19915;-85
2020/12/29 07:20:42;;;;;;;;;;;3.30;99.90;;;;;;5077106;28;19943;-85
2020/12/29 07:23:08;;;;;;;;;;;3.30;99.90;;;;;;5094786;28;19920;-85
2020/12/29 07:25:36;;;;;;;;;;;3.30;99.90;;;;;;5074504;28;19912;-85
2020/12/29 07:28:05;;;;;;;;;;;3.20;99.90;;;;;;5085514;28;19912;-86
2020/12/29 07:30:31;;;;;;;;;;;3.20;99.90;;;;;;5067785;28;19935;-85
2020/12/29 07:33:00;;;;;;;;;;;3.20;99.90;;;;;;5067372;28;19914;-84
2020/12/29 07:35:27;;;;;;;;;;;3.20;99.90;;;;;;5065430;28;19915;-85
2020/12/29 07:37:56;;;;;;;;;;;3.20;99.90;;;;;;5058206;28;19915;-85
2020/12/29 07:40:22;;;;;;;;;;;3.20;99.90;;;;;;5059545;28;19917;-86
2020/12/29 07:42:50;;;;;;;;;;;3.20;99.90;;;;;;5065152;28;20360;-85
2020/12/29 07:45:16;;;;;;;;;;;3.10;99.90;;;;;;5066535;28;19955;-86
2020/12/29 07:47:41;;;;;;;;;;;3.10;99.90;;;;;;5068692;28;19951;-86
2020/12/29 07:50:07;;;;;;;;;;;3.00;99.90;;;;;;5064785;28;19909;-86
2020/12/29 07:52:33;;;;;;;;;;;3.00;99.90;;;;;;5066590;28;19913;-87
2020/12/29 07:55:08;;;;;;;;;;;3.00;99.90;;;;;;5063114;28;19909;-87
2020/12/29 07:57:33;;;;;;;;;;;3.00;99.90;;;;;;5068149;28;20363;-86
2020/12/29 08:00:19;;;;;;;;;;;3.00;99.90;;;;;;5066288;28;19909;-86
2020/12/29 08:02:53;;;;;;;;;;;2.90;99.90;;;;;;5089393;28;19931;-87
2020/12/29 08:05:26;;;;;;;;;;;2.90;99.90;;;;;;5062628;28;19917;-86
2020/12/29 08:07:52;;;;;;;;;;;2.90;99.90;;;;;;5067476;28;19908;-87
2020/12/29 08:10:28;;;;;;;;;;;2.90;99.90;;;;;;5066554;28;19915;-87
2020/12/29 08:12:54;;;;;;;;;;;2.90;99.90;;;;;;5068724;28;19912;-87
2020/12/29 08:15:23;;;;;;;;;;;2.90;99.90;;;;;;5062105;28;19912;-87
2020/12/29 08:17:59;;;;;;;;;;;2.90;99.90;;;;;;5069144;28;19979;-86
2020/12/29 08:20:24;;;;;;;;;;;2.90;99.90;;;;;;5063820;28;19937;-90
2020/12/29 08:22:50;;;;;;;;;;;2.90;99.90;;;;;;5061903;28;20019;-87
2020/12/29 08:25:18;;;;;;;;;;;2.90;99.90;;;;;;5062254;28;19912;-90
2020/12/29 08:27:43;;;;;;;;;;;3.00;99.90;;;;;;5062639;28;20354;-87
2020/12/29 08:30:09;;;;;;;;;;;3.00;99.90;;;;;;5064458;28;19915;-87
2020/12/29 08:32:37;;;;;;;;;;;3.00;99.90;;;;;;5066964;28;19908;-87
2020/12/29 08:35:10;;;;;;;;;;;2.90;99.90;;;;;;5065520;28;19908;-88
2020/12/29 08:37:40;;;;;;;;;;;3.00;99.90;;;;;;5060523;28;19909;-88
2020/12/29 08:40:14;;;;;;;;;;;3.00;99.90;;;;;;5060184;28;19912;-88
2020/12/29 08:42:40;;;;;;;;;;;3.00;99.90;;;;;;5060148;28;19912;-88
2020/12/29 08:45:07;;;;;;;;;;;3.00;99.90;;;;;;5072975;28;19912;-88
2020/12/29 08:47:33;;;;;;;;;;;3.10;99.90;;;;;;5069260;28;19952;-88
2020/12/29 08:50:18;;;;;;;;;;;3.10;99.90;;;;;;5068016;28;20311;-88
2020/12/29 08:52:46;;;;;;;;;;;3.10;99.90;;;;;;5068343;28;19912;-87
2020/12/29 08:55:27;;;;;;;;;;;3.10;99.90;;;;;;5071454;28;19951;-87
2020/12/29 08:57:54;;;;;;;;;;;3.10;99.90;;;;;;5084296;28;19931;-87
2020/12/29 09:00:22;;;;;;;;;;;3.10;99.90;;;;;;5076475;28;20361;-87
2020/12/29 09:02:48;;;;;;;;;;;3.10;99.90;;;;;;5076471;28;19913;-87
2020/12/29 09:05:19;;;;;;;;;;;3.20;99.90;;;;;;5070468;28;19919;-87
2020/12/29 09:07:45;;;;;;;;;;;3.20;99.90;;;;;;5067640;28;19912;-87
2020/12/29 09:10:10;;;;;;;;;;;3.20;99.90;;;;;;5067743;28;19920;-88
2020/12/29 09:12:36;;;;;;;;;;;3.20;99.90;;;;;;5062821;28;19916;-88
2020/12/29 09:15:12;;;;;;;;;;;3.20;99.90;;;;;;5069238;28;19934;-88
2020/12/29 09:17:41;;;;;;;;;;;3.20;99.90;;;;;;5065261;28;20003;-87
2020/12/29 09:20:14;;;;;;;;;;;3.30;99.90;;;;;;5086374;28;20428;-87
2020/12/29 09:23:02;;;;;;;;;;;3.30;99.90;;;;;;5070078;28;19965;-87
2020/12/29 09:25:32;;;;;;;;;;;3.40;99.90;;;;;;5065531;28;20399;-87
2020/12/29 09:28:16;;;;;;;;;;;3.50;99.90;;;;;;5063316;28;19908;-87
2020/12/29 09:31:00;;;;;;;;;;;3.50;99.90;;;;;;5059163;28;20356;-87
2020/12/29 09:33:29;;;;;;;;;;;3.60;99.90;;;;;;5084865;28;20995;-88
2020/12/29 09:35:54;;;;;;;;;;;3.60;99.90;;;;;;5086124;28;19912;-87
2020/12/29 09:38:20;;;;;;;;;;;3.60;99.90;;;;;;5066745;28;19916;-88
2020/12/29 09:40:48;;;;;;;;;;;3.60;99.90;;;;;;5069816;28;19916;-87
2020/12/29 09:43:13;;;;;;;;;;;3.60;99.90;;;;;;5074548;28;20010;-88
2020/12/29 09:45:39;;;;;;;;;;;3.60;99.90;;;;;;5079117;28;19955;-87
2020/12/29 09:48:04;;;;;;;;;;;3.70;99.90;;;;;;5079001;28;19912;-87
2020/12/29 09:50:32;;;;;;;;;;;3.70;99.90;;;;;;5071573;28;20423;-87
2020/12/29 09:52:58;;;;;;;;;;;3.70;99.90;;;;;;5070343;28;20375;-90
2020/12/29 09:55:23;;;;;;;;;;;3.70;99.90;;;;;;5067328;28;19914;-87
2020/12/29 09:57:51;;;;;;;;;;;3.70;99.90;;;;;;5087231;28;20369;-86
2020/12/29 10:00:16;;;;;;;;;;;3.70;99.90;;;;;;5068307;28;19909;-87
2020/12/29 10:02:42;;;;;;;;;;;3.70;99.90;;;;;;5067396;28;19915;-86
2020/12/29 10:05:10;;;;;;;;;;;3.70;99.90;;;;;;5075361;28;19951;-87
2020/12/29 10:07:35;;;;;;;;;;;3.70;99.90;;;;;;5078560;28;20315;-87
2020/12/29 10:10:03;;;;;;;;;;;3.80;99.90;;;;;;5078466;28;19908;-88
2020/12/29 10:12:29;;;;;;;;;;;3.80;99.90;;;;;;5078762;28;20436;-88
2020/12/29 10:15:01;;;;;;;;;;;3.80;99.90;;;;;;5078717;28;19962;-87
2020/12/29 10:17:27;;;;;;;;;;;3.80;99.90;;;;;;5096270;28;19908;-86
2020/12/29 10:19:54;;;;;;;;;;;3.90;99.90;;;;;;5078354;28;20167;-87
2020/12/29 10:22:20;;;;;;;;;;;3.90;99.90;;;;;;5077796;28;20557;-86
2020/12/29 10:24:48;;;;;;;;;;;3.90;99.90;;;;;;5078324;28;19963;-86
2020/12/29 10:27:13;;;;;;;;;;;3.90;99.90;;;;;;5078032;28;19908;-86
2020/12/29 10:29:41;;;;;;;;;;;3.90;99.90;;;;;;5078068;28;19915;-86
2020/12/29 10:32:07;;;;;;;;;;;3.90;99.90;;;;;;5078073;28;19909;-86
2020/12/29 10:34:32;;;;;;;;;;;4.00;99.90;;;;;;5077938;28;20379;-87
2020/12/29 10:37:00;;;;;;;;;;;4.00;99.90;;;;;;5077976;28;19908;-86
2020/12/29 10:39:26;;;;;;;;;;;4.00;99.90;;;;;;5078121;28;19908;-86
2020/12/29 10:41:51;;;;;;;;;;;4.00;99.90;;;;;;5077789;28;19912;-87
2020/12/29 10:44:19;;;;;;;;;;;4.00;99.90;;;;;;5077823;28;19912;-87
2020/12/29 10:46:46;;;;;;;;;;;4.00;99.90;;;;;;5077728;28;19959;-87
2020/12/29 10:49:12;;;;;;;;;;;4.10;99.90;;;;;;5077670;28;19908;-87
2020/12/29 10:51:42;;;;;;;;;;;4.20;99.90;;;;;;5077455;28;19915;-86
2020/12/29 10:54:08;;;;;;;;;;;4.20;99.90;;;;;;5095452;28;19995;-86
2020/12/29 10:56:35;;;;;;;;;;;4.30;99.90;;;;;;5070760;28;20063;-88
2020/12/29 10:59:03;;;;;;;;;;;4.30;99.90;;;;;;5085051;28;19919;-87
2020/12/29 11:01:31;;;;;;;;;;;4.40;99.90;;;;;;5062156;28;19912;-87
2020/12/29 11:03:56;;;;;;;;;;;4.50;99.90;;;;;;5057250;28;19912;-87
2020/12/29 11:06:24;;;;;;;;;;;4.50;99.90;;;;;;5057190;28;19908;-86
2020/12/29 11:08:50;;;;;;;;;;;4.60;99.90;;;;;;5057519;28;20001;-87
2020/12/29 11:11:17;;;;;;;;;;;4.60;99.90;;;;;;5057608;28;19955;-89
2020/12/29 11:13:43;;;;;;;;;;;4.70;99.90;;;;;;5057344;28;19916;-89
2020/12/29 11:16:19;;;;;;;;;;;4.70;99.90;;;;;;5057362;28;19908;-86
2020/12/29 11:18:48;;;;;;;;;;;4.80;99.90;;;;;;5074762;28;20007;-87
2020/12/29 11:21:14;;;;;;;;;;;4.80;99.90;;;;;;5057270;28;19912;-87
2020/12/29 11:23:39;;;;;;;;;;;4.80;99.90;;;;;;5056636;28;19931;-88
2020/12/29 11:26:05;;;;;;;;;;;4.90;99.90;;;;;;5056927;28;19914;-87
2020/12/29 11:28:33;;;;;;;;;;;4.90;99.90;;;;;;5057021;28;19961;-87
2020/12/29 11:30:59;;;;;;;;;;;4.90;99.90;;;;;;5056913;28;19999;-87
2020/12/29 11:33:24;;;;;;;;;;;5.00;99.90;;;;;;5074718;28;19962;-88
2020/12/29 11:35:50;;;;;;;;;;;5.10;99.90;;;;;;5057008;28;20294;-87
2020/12/29 11:38:16;;;;;;;;;;;5.00;99.90;;;;;;5057038;28;20003;-87
2020/12/29 11:40:44;;;;;;;;;;;5.10;99.90;;;;;;5074514;28;19924;-87
2020/12/29 11:43:13;;;;;;;;;;;5.10;99.90;;;;;;5057055;28;19913;-87
2020/12/29 11:45:38;;;;;;;;;;;5.10;99.90;;;;;;5056868;28;20379;-88
2020/12/29 11:48:04;;;;;;;;;;;5.10;99.90;;;;;;5056733;28;19910;-88
2020/12/29 11:50:30;;;;;;;;;;;5.10;99.90;;;;;;5056716;28;19919;-88
2020/12/29 11:52:55;;;;;;;;;;;5.10;99.90;;;;;;5056855;28;19909;-87
2020/12/29 11:55:21;;;;;;;;;;;5.10;99.90;;;;;;5056613;28;20008;-88
2020/12/29 11:57:46;;;;;;;;;;;5.20;99.90;;;;;;5056614;28;19909;-87
2020/12/29 12:00:12;;;;;;;;;;;5.20;99.90;;;;;;5058761;28;19959;-87
2020/12/29 12:02:37;;;;;;;;;;;5.20;99.90;;;;;;5070896;28;20385;-87
2020/12/29 12:05:03;;;;;;;;;;;5.20;99.90;;;;;;5072188;28;19913;-88
2020/12/29 12:07:29;;;;;;;;;;;5.20;99.90;;;;;;5067047;28;19959;-87
2020/12/29 12:09:54;;;;;;;;;;;5.10;99.90;;;;;;5072658;28;19993;-86
2020/12/29 12:12:22;;;;;;;;;;;5.10;99.90;;;;;;5083149;28;19912;-87
2020/12/29 12:14:47;;;;;;;;;;;5.10;99.90;;;;;;5075276;28;19912;-87
2020/12/29 12:46:07;;;;;;;;;;;5.10;99.90;;;;;;5093218;28;20054;-87
2020/12/29 12:48:32;;;;;;;;;;;5.10;99.90;;;;;;5076065;28;19912;-87
2020/12/29 12:50:58;;;;;;;;;;;5.10;99.90;;;;;;5076232;28;20378;-87
2020/12/29 12:53:26;;;;;;;;;;;5.20;99.90;;;;;;5076222;28;19912;-87
2020/12/29 12:55:51;;;;;;;;;;;5.10;99.90;;;;;;5076377;28;19908;-88
2020/12/29 12:58:17;;;;;;;;;;;5.20;99.90;;;;;;5076588;28;19914;-87
2020/12/29 13:00:42;;;;;;;;;;;5.20;99.90;;;;;;5077153;28;19930;-86
2020/12/29 13:03:08;;;;;;;;;;;5.20;99.90;;;;;;5076543;28;19951;-87
2020/12/29 13:05:33;;;;;;;;;;;5.20;99.90;;;;;;5076771;28;19957;-88
2020/12/29 13:07:59;;;;;;;;;;;5.20;99.90;;;;;;5076185;28;19915;-85
2020/12/29 13:10:25;;;;;;;;;;;5.10;99.90;;;;;;5076300;28;19953;-87
2020/12/29 13:12:50;;;;;;;;;;;5.10;99.90;;;;;;5075911;28;19917;-86
2020/12/29 13:15:16;;;;;;;;;;;5.10;99.90;;;;;;5076092;28;20289;-88
2020/12/29 13:17:42;;;;;;;;;;;5.10;99.90;;;;;;5075612;28;19974;-86
2020/12/29 13:20:10;;;;;;;;;;;5.10;99.90;;;;;;5075837;28;19908;-87
2020/12/29 13:22:37;;;;;;;;;;;5.00;99.90;;;;;;5075935;28;19916;-86
2020/12/29 13:25:04;;;;;;;;;;;5.00;99.90;;;;;;5077765;28;19908;-86
2020/12/29 13:27:32;;;;;;;;;;;5.00;99.90;;;;;;5079379;28;19915;-87
2020/12/29 13:30:00;;;;;;;;;;;5.10;99.90;;;;;;5079420;28;19971;-86
2020/12/29 13:32:25;;;;;;;;;;;5.10;99.90;;;;;;5079301;28;20362;-87
2020/12/29 13:34:51;;;;;;;;;;;5.10;99.90;;;;;;5079401;28;19908;-87
2020/12/29 13:37:19;;;;;;;;;;;5.00;99.90;;;;;;5079097;28;20259;-86
2020/12/29 13:39:44;;;;;;;;;;;4.90;99.90;;;;;;5079040;28;19908;-87
2020/12/29 13:42:12;;;;;;;;;;;4.90;99.90;;;;;;5078994;28;19927;-87
2020/12/29 13:44:38;;;;;;;;;;;4.80;99.90;;;;;;5078576;28;19920;-86
2020/12/29 13:47:04;;;;;;;;;;;4.80;99.90;;;;;;5079248;28;19919;-87
2020/12/29 13:49:30;;;;;;;;;;;4.90;99.90;;;;;;5079394;28;19974;-86
2020/12/29 13:51:56;;;;;;;;;;;4.90;99.90;;;;;;5097173;28;19908;-88
2020/12/29 13:54:25;;;;;;;;;;;4.90;99.90;;;;;;5078894;28;20011;-87
2020/12/29 13:56:56;;;;;;;;;;;4.90;99.90;;;;;;5078334;28;19942;-86
2020/12/29 13:59:22;;;;;;;;;;;4.90;99.90;;;;;;5078767;28;20373;-87
2020/12/29 14:01:48;;;;;;;;;;;4.90;99.90;;;;;;5078586;28;19916;-86
2020/12/29 14:04:14;;;;;;;;;;;5.00;99.90;;;;;;5078638;28;19934;-87
2020/12/29 14:06:40;;;;;;;;;;;5.00;99.90;;;;;;5078326;28;20403;-86
2020/12/29 14:09:05;;;;;;;;;;;5.00;99.90;;;;;;5078332;28;19912;-87
2020/12/29 14:11:33;;;;;;;;;;;5.00;99.90;;;;;;5078811;28;20002;-87
2020/12/29 14:14:01;;;;;;;;;;;5.00;99.90;;;;;;5078462;28;19915;-87
2020/12/29 14:16:29;;;;;;;;;;;5.00;99.90;;;;;;5078504;28;20351;-86
2020/12/29 14:18:55;;;;;;;;;;;5.00;99.90;;;;;;5078401;28;19908;-87
2020/12/29 14:21:20;;;;;;;;;;;5.00;99.90;;;;;;5078282;28;19924;-87
2020/12/29 14:23:46;;;;;;;;;;;5.10;99.90;;;;;;5077998;28;20002;-86
2020/12/29 14:26:12;;;;;;;;;;;5.10;99.90;;;;;;5077398;28;20002;-86
2020/12/29 14:28:39;;;;;;;;;;;5.10;99.90;;;;;;5077624;28;20367;-86
2020/12/29 14:31:09;;;;;;;;;;;5.00;99.90;;;;;;5078088;28;19908;-86
2020/12/29 14:33:35;;;;;;;;;;;5.00;99.90;;;;;;5095974;28;19962;-87
2020/12/29 14:36:05;;;;;;;;;;;5.00;99.90;;;;;;5077760;28;19912;-87
2020/12/29 14:38:30;;;;;;;;;;;5.00;99.90;;;;;;5077071;28;20252;-85
2020/12/29 14:40:56;;;;;;;;;;;5.00;99.90;;;;;;5077550;28;19924;-86
2020/12/29 14:43:22;;;;;;;;;;;5.10;99.90;;;;;;5077387;28;19913;-87
2020/12/29 14:45:48;;;;;;;;;;;5.10;99.90;;;;;;5074545;28;19965;-86
2020/12/29 14:48:18;;;;;;;;;;;5.10;99.90;;;;;;5095741;28;19912;-86
2020/12/29 14:50:44;;;;;;;;;;;5.10;99.90;;;;;;5078083;28;19912;-86
2020/12/29 14:53:12;;;;;;;;;;;5.00;99.90;;;;;;5077492;28;20440;-87
2020/12/29 14:55:40;;;;;;;;;;;5.00;99.90;;;;;;5076668;28;19912;-87
2020/12/29 14:58:08;;;;;;;;;;;4.90;99.90;;;;;;5076949;28;19909;-87
2020/12/29 15:00:36;;;;;;;;;;;5.00;99.90;;;;;;5077019;28;19920;-87
2020/12/29 15:03:02;;;;;;;;;;;5.00;99.90;;;;;;5078073;28;19908;-87